sensor_id;sensor_type;location;lat;lon;timestamp;temperature;humidity
59847;DHT22;45728;48.788;2.302;2023-09-19T00:00:37;15.70;99.90
59847;DHT22;45728;48.788;2.302;2023-09-19T00:03:06;15.80;99.90
59847;DHT22;45728;48.788;2.302;2023-09-19T00:05:36;15.80;99.90
59847;DHT22;45728;48.788;2.302;2023-09-19T00:08:02;15.70;99.90
59847;DHT22;45728;48.788;2.302;2023-09-19T00:10:30;15.60;99.90
59847;DHT22;45728;48.788;2.302;2023-09-19T00:12:58;15.60;99.90
59847;DHT22;45728;48.788;2.302;2023-09-19T00:15:39;15.60;99.90
59847;DHT22;45728;48.788;2.302;2023-09-19T00:18:06;15.60;99.90
59847;DHT22;45728;48.788;2.302;2023-09-19T00:20:35;15.50;99.90
59847;DHT22;45728;48.788;2.302;2023-09-19T00:23:02;15.40;99.90
59847;DHT22;45728;48.788;2.302;2023-09-19T00:25:31;15.40;99.90
59847;DHT22;45728;48.788;2.302;2023-09-19T00:28:01;15.50;99.90
59847;DHT22;45728;48.788;2.302;2023-09-19T00:30:27;15.40;99.90
59847;DHT22;45728;48.788;2.302;2023-09-19T00:32:53;15.30;99.90
59847;DHT22;45728;48.788;2.302;2023-09-19T00:35:23;15.30;99.90
59847;DHT22;45728;48.788;2.302;2023-09-19T00:37:50;15.30;99.90
59847;DHT22;45728;48.788;2.302;2023-09-19T00:40:16;15.30;99.90
59847;DHT22;45728;48.788;2.302;2023-09-19T00:42:44;15.30;99.90
59847;DHT22;45728;48.788;2.302;2023-09-19T00:45:11;15.20;99.90
59847;DHT22;45728;48.788;2.302;2023-09-19T00:47:48;15.10;99.90
59847;DHT22;45728;48.788;2.302;2023-09-19T00:50:17;15.10;99.90
59847;DHT22;45728;48.788;2.302;2023-09-19T00:52:48;15.10;99.90
59847;DHT22;45728;48.788;2.302;2023-09-19T00:55:16;15.10;99.90
59847;DHT22;45728;48.788;2.302;2023-09-19T00:57:42;15.20;99.90
59847;DHT22;45728;48.788;2.302;2023-09-19T01:00:10;15.20;99.90
59847;DHT22;45728;48.788;2.302;2023-09-19T01:02:42;15.30;99.90
59847;DHT22;45728;48.788;2.302;2023-09-19T01:05:10;15.20;99.90
59847;DHT22;45728;48.788;2.302;2023-09-19T01:07:36;15.30;99.90
59847;DHT22;45728;48.788;2.302;2023-09-19T01:10:03;15.30;99.90
59847;DHT22;45728;48.788;2.302;2023-09-19T01:32:08;15.20;99.90
59847;DHT22;45728;48.788;2.302;2023-09-19T01:34:46;15.20;99.90
59847;DHT22;45728;48.788;2.302;2023-09-19T01:37:13;15.10;99.90
59847;DHT22;45728;48.788;2.302;2023-09-19T01:39:51;15.10;99.90
59847;DHT22;45728;48.788;2.302;2023-09-19T01:47:54;15.00;99.90
59847;DHT22;45728;48.788;2.302;2023-09-19T01:50:32;15.00;99.90
59847;DHT22;45728;48.788;2.302;2023-09-19T01:53:10;15.00;99.90
59847;DHT22;45728;48.788;2.302;2023-09-19T01:55:43;15.00;99.90
59847;DHT22;45728;48.788;2.302;2023-09-19T01:59:06;15.00;99.90
59847;DHT22;45728;48.788;2.302;2023-09-19T02:01:11;14.90;99.90
59847;DHT22;45728;48.788;2.302;2023-09-19T02:03:39;14.90;99.90
59847;DHT22;45728;48.788;2.302;2023-09-19T02:06:06;14.90;99.90
59847;DHT22;45728;48.788;2.302;2023-09-19T02:08:37;14.90;99.90
59847;DHT22;45728;48.788;2.302;2023-09-19T02:11:03;14.90;99.90
59847;DHT22;45728;48.788;2.302;2023-09-19T02:13:29;14.80;99.90
59847;DHT22;45728;48.788;2.302;2023-09-19T02:15:56;14.80;99.90
59847;DHT22;45728;48.788;2.302;2023-09-19T02:18:22;14.80;99.90
59847;DHT22;45728;48.788;2.302;2023-09-19T02:20:48;14.80;99.90
59847;DHT22;45728;48.788;2.302;2023-09-19T02:23:17;14.80;99.90
59847;DHT22;45728;48.788;2.302;2023-09-19T02:25:52;14.80;99.90
59847;DHT22;45728;48.788;2.302;2023-09-19T02:28:18;14.70;99.90
59847;DHT22;45728;48.788;2.302;2023-09-19T02:30:47;14.60;99.90
59847;DHT22;45728;48.788;2.302;2023-09-19T02:33:14;14.60;99.90
59847;DHT22;45728;48.788;2.302;2023-09-19T02:35:41;14.70;99.90
59847;DHT22;45728;48.788;2.302;2023-09-19T02:38:07;14.60;99.90
59847;DHT22;45728;48.788;2.302;2023-09-19T02:40:38;14.60;99.90
59847;DHT22;45728;48.788;2.302;2023-09-19T02:43:04;14.70;99.90
59847;DHT22;45728;48.788;2.302;2023-09-19T02:45:31;14.70;99.90
59847;DHT22;45728;48.788;2.302;2023-09-19T02:47:57;14.70;99.90
59847;DHT22;45728;48.788;2.302;2023-09-19T02:50:24;14.70;99.90
59847;DHT22;45728;48.788;2.302;2023-09-19T02:52:50;14.70;99.90
59847;DHT22;45728;48.788;2.302;2023-09-19T02:55:17;14.70;99.90
59847;DHT22;45728;48.788;2.302;2023-09-19T02:57:50;14.70;99.90
59847;DHT22;45728;48.788;2.302;2023-09-19T03:00:18;14.60;99.90
59847;DHT22;45728;48.788;2.302;2023-09-19T03:02:53;14.70;99.90
59847;DHT22;45728;48.788;2.302;2023-09-19T03:05:20;14.70;99.90
59847;DHT22;45728;48.788;2.302;2023-09-19T03:07:47;14.60;99.90
59847;DHT22;45728;48.788;2.302;2023-09-19T03:10:20;14.60;99.90
59847;DHT22;45728;48.788;2.302;2023-09-19T03:12:47;14.60;99.90
59847;DHT22;45728;48.788;2.302;2023-09-19T03:15:14;14.60;99.90
59847;DHT22;45728;48.788;2.302;2023-09-19T03:17:45;14.50;99.90
59847;DHT22;45728;48.788;2.302;2023-09-19T03:20:12;14.50;99.90
59847;DHT22;45728;48.788;2.302;2023-09-19T03:22:43;14.50;99.90
59847;DHT22;45728;48.788;2.302;2023-09-19T03:25:10;14.60;99.90
59847;DHT22;45728;48.788;2.302;2023-09-19T03:27:38;14.60;99.90
59847;DHT22;45728;48.788;2.302;2023-09-19T03:30:05;14.60;99.90
59847;DHT22;45728;48.788;2.302;2023-09-19T03:32:34;14.60;99.90
59847;DHT22;45728;48.788;2.302;2023-09-19T03:35:01;14.60;99.90
59847;DHT22;45728;48.788;2.302;2023-09-19T03:37:27;14.50;99.90
59847;DHT22;45728;48.788;2.302;2023-09-19T03:39:53;14.40;99.90
59847;DHT22;45728;48.788;2.302;2023-09-19T03:42:19;14.40;99.90
59847;DHT22;45728;48.788;2.302;2023-09-19T03:44:51;14.40;99.90
59847;DHT22;45728;48.788;2.302;2023-09-19T03:47:18;14.50;99.90
59847;DHT22;45728;48.788;2.302;2023-09-19T03:49:44;14.50;99.90
59847;DHT22;45728;48.788;2.302;2023-09-19T03:52:11;14.60;99.90
59847;DHT22;45728;48.788;2.302;2023-09-19T03:54:37;14.50;99.90
59847;DHT22;45728;48.788;2.302;2023-09-19T03:57:03;14.50;99.90
59847;DHT22;45728;48.788;2.302;2023-09-19T03:59:30;14.40;99.90
59847;DHT22;45728;48.788;2.302;2023-09-19T04:01:56;14.40;99.90
59847;DHT22;45728;48.788;2.302;2023-09-19T04:04:24;14.40;99.90
59847;DHT22;45728;48.788;2.302;2023-09-19T04:06:53;14.30;99.90
59847;DHT22;45728;48.788;2.302;2023-09-19T04:09:19;14.30;99.90
59847;DHT22;45728;48.788;2.302;2023-09-19T04:11:46;14.40;99.90
59847;DHT22;45728;48.788;2.302;2023-09-19T04:14:12;14.30;99.90
59847;DHT22;45728;48.788;2.302;2023-09-19T04:16:38;14.40;99.90
59847;DHT22;45728;48.788;2.302;2023-09-19T04:19:04;14.30;99.90
59847;DHT22;45728;48.788;2.302;2023-09-19T04:21:31;14.40;99.90
59847;DHT22;45728;48.788;2.302;2023-09-19T04:23:57;14.40;99.90
59847;DHT22;45728;48.788;2.302;2023-09-19T04:26:23;14.30;99.90
59847;DHT22;45728;48.788;2.302;2023-09-19T04:28:51;14.30;99.90
59847;DHT22;45728;48.788;2.302;2023-09-19T04:31:17;14.40;99.90
59847;DHT22;45728;48.788;2.302;2023-09-19T04:33:45;14.30;99.90
59847;DHT22;45728;48.788;2.302;2023-09-19T04:36:11;14.30;99.90
59847;DHT22;45728;48.788;2.302;2023-09-19T04:38:39;14.30;99.90
59847;DHT22;45728;48.788;2.302;2023-09-19T04:41:05;14.40;99.90
59847;DHT22;45728;48.788;2.302;2023-09-19T04:43:32;14.40;99.90
59847;DHT22;45728;48.788;2.302;2023-09-19T04:45:58;14.40;99.90
59847;DHT22;45728;48.788;2.302;2023-09-19T04:48:26;14.30;99.90
59847;DHT22;45728;48.788;2.302;2023-09-19T04:50:52;14.30;99.90
59847;DHT22;45728;48.788;2.302;2023-09-19T04:53:18;14.30;99.90
59847;DHT22;45728;48.788;2.302;2023-09-19T04:55:52;14.30;99.90
59847;DHT22;45728;48.788;2.302;2023-09-19T04:58:18;14.30;99.90
59847;DHT22;45728;48.788;2.302;2023-09-19T05:00:46;14.30;99.90
59847;DHT22;45728;48.788;2.302;2023-09-19T05:03:12;14.30;99.90
59847;DHT22;45728;48.788;2.302;2023-09-19T05:05:38;14.30;99.90
59847;DHT22;45728;48.788;2.302;2023-09-19T05:08:04;14.30;99.90
59847;DHT22;45728;48.788;2.302;2023-09-19T05:10:32;14.30;99.90
59847;DHT22;45728;48.788;2.302;2023-09-19T05:12:58;14.20;99.90
59847;DHT22;45728;48.788;2.302;2023-09-19T05:15:24;14.20;99.90
59847;DHT22;45728;48.788;2.302;2023-09-19T05:17:51;14.20;99.90
59847;DHT22;45728;48.788;2.302;2023-09-19T05:20:17;14.20;99.90
59847;DHT22;45728;48.788;2.302;2023-09-19T05:23:05;14.10;99.90
59847;DHT22;45728;48.788;2.302;2023-09-19T05:25:36;14.10;99.90
59847;DHT22;45728;48.788;2.302;2023-09-19T05:28:08;14.20;99.90
59847;DHT22;45728;48.788;2.302;2023-09-19T05:30:35;14.10;99.90
59847;DHT22;45728;48.788;2.302;2023-09-19T05:33:02;14.10;99.90
59847;DHT22;45728;48.788;2.302;2023-09-19T05:35:30;14.10;99.90
59847;DHT22;45728;48.788;2.302;2023-09-19T05:37:57;14.10;99.90
59847;DHT22;45728;48.788;2.302;2023-09-19T05:40:25;14.10;99.90
59847;DHT22;45728;48.788;2.302;2023-09-19T05:42:51;14.10;99.90
59847;DHT22;45728;48.788;2.302;2023-09-19T05:45:17;14.20;99.90
59847;DHT22;45728;48.788;2.302;2023-09-19T05:47:53;14.10;99.90
59847;DHT22;45728;48.788;2.302;2023-09-19T05:50:30;14.20;99.90
59847;DHT22;45728;48.788;2.302;2023-09-19T05:52:58;14.10;99.90
59847;DHT22;45728;48.788;2.302;2023-09-19T05:55:24;14.10;99.90
59847;DHT22;45728;48.788;2.302;2023-09-19T05:57:51;14.10;99.90
59847;DHT22;45728;48.788;2.302;2023-09-19T06:00:21;14.10;99.90
59847;DHT22;45728;48.788;2.302;2023-09-19T06:02:51;14.10;99.90
59847;DHT22;45728;48.788;2.302;2023-09-19T06:05:18;14.10;99.90
59847;DHT22;45728;48.788;2.302;2023-09-19T06:07:44;14.20;99.90
59847;DHT22;45728;48.788;2.302;2023-09-19T06:10:10;14.10;99.90
59847;DHT22;45728;48.788;2.302;2023-09-19T06:12:40;14.30;99.90
59847;DHT22;45728;48.788;2.302;2023-09-19T06:15:07;14.30;99.90
59847;DHT22;45728;48.788;2.302;2023-09-19T06:17:38;14.30;99.90
59847;DHT22;45728;48.788;2.302;2023-09-19T06:20:07;14.30;99.90
59847;DHT22;45728;48.788;2.302;2023-09-19T06:22:44;14.30;99.90
59847;DHT22;45728;48.788;2.302;2023-09-19T06:25:11;14.30;99.90
59847;DHT22;45728;48.788;2.302;2023-09-19T06:27:39;14.30;99.90
59847;DHT22;45728;48.788;2.302;2023-09-19T06:30:10;14.30;99.90
59847;DHT22;45728;48.788;2.302;2023-09-19T06:32:43;14.30;99.90
59847;DHT22;45728;48.788;2.302;2023-09-19T06:35:13;14.30;99.90
59847;DHT22;45728;48.788;2.302;2023-09-19T06:37:40;14.40;99.90
59847;DHT22;45728;48.788;2.302;2023-09-19T06:40:13;14.40;99.90
59847;DHT22;45728;48.788;2.302;2023-09-19T06:42:41;14.40;99.90
59847;DHT22;45728;48.788;2.302;2023-09-19T06:45:08;14.50;99.90
59847;DHT22;45728;48.788;2.302;2023-09-19T06:47:37;14.50;99.90
59847;DHT22;45728;48.788;2.302;2023-09-19T06:50:04;14.50;99.90
59847;DHT22;45728;48.788;2.302;2023-09-19T06:52:32;14.60;99.90
59847;DHT22;45728;48.788;2.302;2023-09-19T06:54:59;14.60;99.90
59847;DHT22;45728;48.788;2.302;2023-09-19T06:57:25;14.60;99.90
59847;DHT22;45728;48.788;2.302;2023-09-19T06:59:51;14.60;99.90
59847;DHT22;45728;48.788;2.302;2023-09-19T07:02:17;14.70;99.90
59847;DHT22;45728;48.788;2.302;2023-09-19T07:04:43;14.70;99.90
59847;DHT22;45728;48.788;2.302;2023-09-19T07:07:09;14.70;99.90
59847;DHT22;45728;48.788;2.302;2023-09-19T07:09:36;14.80;99.90
59847;DHT22;45728;48.788;2.302;2023-09-19T07:12:03;14.90;99.90
59847;DHT22;45728;48.788;2.302;2023-09-19T07:14:29;14.90;99.90
59847;DHT22;45728;48.788;2.302;2023-09-19T07:16:56;15.00;99.90
59847;DHT22;45728;48.788;2.302;2023-09-19T07:19:22;15.00;99.90
59847;DHT22;45728;48.788;2.302;2023-09-19T07:21:48;15.10;99.90
59847;DHT22;45728;48.788;2.302;2023-09-19T07:24:16;15.20;99.90
59847;DHT22;45728;48.788;2.302;2023-09-19T07:26:42;15.20;99.90
59847;DHT22;45728;48.788;2.302;2023-09-19T07:29:08;15.30;99.90
59847;DHT22;45728;48.788;2.302;2023-09-19T07:31:34;15.40;99.90
59847;DHT22;45728;48.788;2.302;2023-09-19T07:34:00;15.40;99.90
59847;DHT22;45728;48.788;2.302;2023-09-19T07:36:26;15.40;99.90
59847;DHT22;45728;48.788;2.302;2023-09-19T07:38:55;15.50;99.90
59847;DHT22;45728;48.788;2.302;2023-09-19T07:41:24;15.60;99.90
59847;DHT22;45728;48.788;2.302;2023-09-19T07:43:50;15.70;99.90
59847;DHT22;45728;48.788;2.302;2023-09-19T07:46:16;15.70;99.90
59847;DHT22;45728;48.788;2.302;2023-09-19T07:48:42;15.70;99.90
59847;DHT22;45728;48.788;2.302;2023-09-19T07:51:13;15.70;99.90
59847;DHT22;45728;48.788;2.302;2023-09-19T07:53:41;15.80;99.90
59847;DHT22;45728;48.788;2.302;2023-09-19T07:56:09;15.80;99.90
59847;DHT22;45728;48.788;2.302;2023-09-19T07:58:38;15.90;99.90
59847;DHT22;45728;48.788;2.302;2023-09-19T08:01:08;15.90;99.90
59847;DHT22;45728;48.788;2.302;2023-09-19T08:03:36;16.00;99.90
59847;DHT22;45728;48.788;2.302;2023-09-19T08:06:07;16.00;99.90
59847;DHT22;45728;48.788;2.302;2023-09-19T08:08:34;16.10;99.90
59847;DHT22;45728;48.788;2.302;2023-09-19T08:11:04;16.00;99.90
59847;DHT22;45728;48.788;2.302;2023-09-19T08:13:41;15.90;99.90
59847;DHT22;45728;48.788;2.302;2023-09-19T08:16:10;15.90;99.90
59847;DHT22;45728;48.788;2.302;2023-09-19T08:18:37;15.90;99.90
59847;DHT22;45728;48.788;2.302;2023-09-19T08:21:06;15.90;99.90
59847;DHT22;45728;48.788;2.302;2023-09-19T08:23:37;16.00;99.90
59847;DHT22;45728;48.788;2.302;2023-09-19T08:26:04;16.00;99.90
59847;DHT22;45728;48.788;2.302;2023-09-19T08:28:35;16.00;99.90
59847;DHT22;45728;48.788;2.302;2023-09-19T08:31:05;16.00;99.90
59847;DHT22;45728;48.788;2.302;2023-09-19T08:33:32;16.10;99.90
59847;DHT22;45728;48.788;2.302;2023-09-19T08:35:59;16.20;99.90
59847;DHT22;45728;48.788;2.302;2023-09-19T08:38:25;16.20;99.90
59847;DHT22;45728;48.788;2.302;2023-09-19T08:40:59;16.30;99.90
59847;DHT22;45728;48.788;2.302;2023-09-19T08:43:26;16.40;99.90
59847;DHT22;45728;48.788;2.302;2023-09-19T08:46:11;16.50;99.90
59847;DHT22;45728;48.788;2.302;2023-09-19T08:48:46;16.60;99.90
59847;DHT22;45728;48.788;2.302;2023-09-19T08:51:21;16.60;99.90
59847;DHT22;45728;48.788;2.302;2023-09-19T08:53:58;16.60;99.90
59847;DHT22;45728;48.788;2.302;2023-09-19T08:56:26;16.70;99.90
59847;DHT22;45728;48.788;2.302;2023-09-19T08:59:02;16.80;99.90
59847;DHT22;45728;48.788;2.302;2023-09-19T09:01:31;16.80;99.90
59847;DHT22;45728;48.788;2.302;2023-09-19T09:03:58;17.00;99.90
59847;DHT22;45728;48.788;2.302;2023-09-19T09:06:25;17.00;99.90
59847;DHT22;45728;48.788;2.302;2023-09-19T09:08:54;17.10;99.90
59847;DHT22;45728;48.788;2.302;2023-09-19T09:11:21;17.10;99.90
59847;DHT22;45728;48.788;2.302;2023-09-19T09:13:48;17.20;99.90
59847;DHT22;45728;48.788;2.302;2023-09-19T09:16:14;17.30;99.90
59847;DHT22;45728;48.788;2.302;2023-09-19T09:18:47;17.60;99.90
59847;DHT22;45728;48.788;2.302;2023-09-19T09:21:18;17.80;99.90
59847;DHT22;45728;48.788;2.302;2023-09-19T09:23:48;17.90;99.90
59847;DHT22;45728;48.788;2.302;2023-09-19T09:26:15;18.10;99.90
59847;DHT22;45728;48.788;2.302;2023-09-19T09:28:45;18.40;99.90
59847;DHT22;45728;48.788;2.302;2023-09-19T09:31:25;18.30;99.90
59847;DHT22;45728;48.788;2.302;2023-09-19T09:33:55;18.60;99.90
59847;DHT22;45728;48.788;2.302;2023-09-19T09:36:38;18.90;99.90
59847;DHT22;45728;48.788;2.302;2023-09-19T09:39:07;19.30;99.90
59847;DHT22;45728;48.788;2.302;2023-09-19T09:41:45;19.30;99.90
59847;DHT22;45728;48.788;2.302;2023-09-19T09:44:16;19.40;99.90
59847;DHT22;45728;48.788;2.302;2023-09-19T09:46:44;19.40;99.90
59847;DHT22;45728;48.788;2.302;2023-09-19T09:49:23;19.50;99.90
59847;DHT22;45728;48.788;2.302;2023-09-19T09:52:01;19.60;99.90
59847;DHT22;45728;48.788;2.302;2023-09-19T09:54:31;19.80;99.90
59847;DHT22;45728;48.788;2.302;2023-09-19T09:57:05;19.50;99.90
59847;DHT22;45728;48.788;2.302;2023-09-19T09:59:55;19.60;99.90
59847;DHT22;45728;48.788;2.302;2023-09-19T10:02:30;19.60;99.90
59847;DHT22;45728;48.788;2.302;2023-09-19T10:05:19;19.70;99.90
59847;DHT22;45728;48.788;2.302;2023-09-19T10:07:46;19.80;99.90
59847;DHT22;45728;48.788;2.302;2023-09-19T10:10:31;19.90;99.90
59847;DHT22;45728;48.788;2.302;2023-09-19T10:13:19;20.00;99.90
59847;DHT22;45728;48.788;2.302;2023-09-19T10:15:48;20.30;99.90
59847;DHT22;45728;48.788;2.302;2023-09-19T10:18:19;20.40;99.90
59847;DHT22;45728;48.788;2.302;2023-09-19T10:20:47;20.50;99.90
59847;DHT22;45728;48.788;2.302;2023-09-19T10:23:17;20.40;99.90
59847;DHT22;45728;48.788;2.302;2023-09-19T10:25:49;20.30;99.90
59847;DHT22;45728;48.788;2.302;2023-09-19T10:28:17;20.40;99.90
59847;DHT22;45728;48.788;2.302;2023-09-19T10:30:48;20.60;99.90
59847;DHT22;45728;48.788;2.302;2023-09-19T10:33:17;20.20;99.90
59847;DHT22;45728;48.788;2.302;2023-09-19T10:35:46;19.90;99.90
59847;DHT22;45728;48.788;2.302;2023-09-19T10:38:20;19.90;99.90
59847;DHT22;45728;48.788;2.302;2023-09-19T10:40:53;19.80;99.90
59847;DHT22;45728;48.788;2.302;2023-09-19T10:43:21;19.70;99.90
59847;DHT22;45728;48.788;2.302;2023-09-19T10:45:48;19.50;99.90
59847;DHT22;45728;48.788;2.302;2023-09-19T10:48:16;19.50;99.90
59847;DHT22;45728;48.788;2.302;2023-09-19T10:50:50;19.70;99.90
59847;DHT22;45728;48.788;2.302;2023-09-19T10:53:17;19.70;99.90
59847;DHT22;45728;48.788;2.302;2023-09-19T10:55:55;19.50;99.90
59847;DHT22;45728;48.788;2.302;2023-09-19T10:58:29;19.50;99.90
59847;DHT22;45728;48.788;2.302;2023-09-19T11:00:58;19.60;99.90
59847;DHT22;45728;48.788;2.302;2023-09-19T11:03:35;19.80;99.90
59847;DHT22;45728;48.788;2.302;2023-09-19T11:09:01;19.90;99.90
59847;DHT22;45728;48.788;2.302;2023-09-19T11:11:46;19.80;99.90
59847;DHT22;45728;48.788;2.302;2023-09-19T11:30:34;19.70;99.90
59847;DHT22;45728;48.788;2.302;2023-09-19T11:36:11;19.90;99.90
59847;DHT22;45728;48.788;2.302;2023-09-19T11:49:31;19.80;99.90
59847;DHT22;45728;48.788;2.302;2023-09-19T11:52:03;19.70;99.90
59847;DHT22;45728;48.788;2.302;2023-09-19T11:54:35;19.60;99.90
59847;DHT22;45728;48.788;2.302;2023-09-19T11:57:06;19.50;99.90
59847;DHT22;45728;48.788;2.302;2023-09-19T11:59:33;19.40;99.90
59847;DHT22;45728;48.788;2.302;2023-09-19T12:02:06;19.40;99.90
59847;DHT22;45728;48.788;2.302;2023-09-19T12:04:38;19.40;99.90
59847;DHT22;45728;48.788;2.302;2023-09-19T12:07:07;19.70;99.90
59847;DHT22;45728;48.788;2.302;2023-09-19T12:09:39;19.70;99.90
59847;DHT22;45728;48.788;2.302;2023-09-19T12:12:26;19.70;99.90
59847;DHT22;45728;48.788;2.302;2023-09-19T12:14:54;19.70;99.90
59847;DHT22;45728;48.788;2.302;2023-09-19T12:17:21;19.80;99.90
59847;DHT22;45728;48.788;2.302;2023-09-19T12:19:51;19.90;99.90
59847;DHT22;45728;48.788;2.302;2023-09-19T12:22:18;20.10;99.90
59847;DHT22;45728;48.788;2.302;2023-09-19T12:24:46;20.20;99.90
59847;DHT22;45728;48.788;2.302;2023-09-19T12:27:13;20.30;99.90
59847;DHT22;45728;48.788;2.302;2023-09-19T12:29:49;20.30;99.90
59847;DHT22;45728;48.788;2.302;2023-09-19T12:32:16;20.40;99.90
59847;DHT22;45728;48.788;2.302;2023-09-19T12:34:51;20.50;99.90
59847;DHT22;45728;48.788;2.302;2023-09-19T12:37:18;20.30;99.90
59847;DHT22;45728;48.788;2.302;2023-09-19T12:39:51;20.30;99.90
59847;DHT22;45728;48.788;2.302;2023-09-19T12:42:25;20.30;99.90
59847;DHT22;45728;48.788;2.302;2023-09-19T12:44:58;20.40;99.90
59847;DHT22;45728;48.788;2.302;2023-09-19T12:47:28;20.40;99.90
59847;DHT22;45728;48.788;2.302;2023-09-19T12:50:15;20.70;99.90
59847;DHT22;45728;48.788;2.302;2023-09-19T12:52:43;20.80;99.90
59847;DHT22;45728;48.788;2.302;2023-09-19T12:58:09;20.50;99.90
59847;DHT22;45728;48.788;2.302;2023-09-19T13:00:43;20.50;99.90
59847;DHT22;45728;48.788;2.302;2023-09-19T13:08:29;20.70;99.90
59847;DHT22;45728;48.788;2.302;2023-09-19T13:13:37;20.70;99.90
59847;DHT22;45728;48.788;2.302;2023-09-19T13:16:04;20.60;99.90
59847;DHT22;45728;48.788;2.302;2023-09-19T13:18:52;20.70;99.90
59847;DHT22;45728;48.788;2.302;2023-09-19T13:21:30;20.80;99.90
59847;DHT22;45728;48.788;2.302;2023-09-19T13:24:22;20.80;99.90
59847;DHT22;45728;48.788;2.302;2023-09-19T13:26:49;21.00;99.90
59847;DHT22;45728;48.788;2.302;2023-09-19T13:29:16;21.10;99.90
59847;DHT22;45728;48.788;2.302;2023-09-19T13:31:51;21.20;99.90
59847;DHT22;45728;48.788;2.302;2023-09-19T13:34:19;21.30;99.90
59847;DHT22;45728;48.788;2.302;2023-09-19T13:36:46;21.50;99.90
59847;DHT22;45728;48.788;2.302;2023-09-19T13:39:16;21.40;99.90
59847;DHT22;45728;48.788;2.302;2023-09-19T13:41:45;21.30;99.90
59847;DHT22;45728;48.788;2.302;2023-09-19T13:44:12;21.30;99.90
59847;DHT22;45728;48.788;2.302;2023-09-19T13:46:38;21.50;99.90
59847;DHT22;45728;48.788;2.302;2023-09-19T13:49:04;21.50;99.90
59847;DHT22;45728;48.788;2.302;2023-09-19T13:51:31;21.20;99.90
59847;DHT22;45728;48.788;2.302;2023-09-19T13:53:58;21.30;99.90
59847;DHT22;45728;48.788;2.302;2023-09-19T13:56:25;21.40;99.90
59847;DHT22;45728;48.788;2.302;2023-09-19T13:58:56;21.40;99.90
59847;DHT22;45728;48.788;2.302;2023-09-19T14:01:22;21.50;99.90
59847;DHT22;45728;48.788;2.302;2023-09-19T14:03:48;21.70;99.90
59847;DHT22;45728;48.788;2.302;2023-09-19T14:06:16;21.50;99.90
59847;DHT22;45728;48.788;2.302;2023-09-19T14:08:43;21.40;99.90
59847;DHT22;45728;48.788;2.302;2023-09-19T14:11:13;21.50;99.90
59847;DHT22;45728;48.788;2.302;2023-09-19T14:13:40;21.60;99.90
59847;DHT22;45728;48.788;2.302;2023-09-19T14:16:07;21.50;99.90
59847;DHT22;45728;48.788;2.302;2023-09-19T14:18:35;21.40;99.90
59847;DHT22;45728;48.788;2.302;2023-09-19T14:21:04;21.30;99.90
59847;DHT22;45728;48.788;2.302;2023-09-19T14:23:39;21.40;99.90
59847;DHT22;45728;48.788;2.302;2023-09-19T14:26:08;21.50;99.90
59847;DHT22;45728;48.788;2.302;2023-09-19T14:28:35;21.40;99.90
59847;DHT22;45728;48.788;2.302;2023-09-19T14:31:08;21.50;99.90
59847;DHT22;45728;48.788;2.302;2023-09-19T14:33:35;21.80;99.90
59847;DHT22;45728;48.788;2.302;2023-09-19T14:36:06;21.70;99.90
59847;DHT22;45728;48.788;2.302;2023-09-19T14:38:36;21.70;99.90
59847;DHT22;45728;48.788;2.302;2023-09-19T14:41:21;21.60;99.90
59847;DHT22;45728;48.788;2.302;2023-09-19T14:43:49;21.50;99.90
59847;DHT22;45728;48.788;2.302;2023-09-19T14:46:15;21.50;99.90
59847;DHT22;45728;48.788;2.302;2023-09-19T14:48:41;21.60;99.90
59847;DHT22;45728;48.788;2.302;2023-09-19T14:51:09;21.60;99.90
59847;DHT22;45728;48.788;2.302;2023-09-19T14:53:38;21.60;99.90
59847;DHT22;45728;48.788;2.302;2023-09-19T14:56:05;21.70;99.90
59847;DHT22;45728;48.788;2.302;2023-09-19T14:58:31;21.70;99.90
59847;DHT22;45728;48.788;2.302;2023-09-19T15:01:09;21.90;99.90
59847;DHT22;45728;48.788;2.302;2023-09-19T15:03:39;22.00;99.90
59847;DHT22;45728;48.788;2.302;2023-09-19T15:06:07;22.10;99.90
59847;DHT22;45728;48.788;2.302;2023-09-19T15:08:41;22.00;99.90
59847;DHT22;45728;48.788;2.302;2023-09-19T15:11:12;21.80;99.90
59847;DHT22;45728;48.788;2.302;2023-09-19T15:13:38;21.80;99.90
59847;DHT22;45728;48.788;2.302;2023-09-19T15:16:06;21.80;99.90
59847;DHT22;45728;48.788;2.302;2023-09-19T15:18:40;21.70;99.90
59847;DHT22;45728;48.788;2.302;2023-09-19T15:21:08;21.70;99.90
59847;DHT22;45728;48.788;2.302;2023-09-19T15:23:37;21.60;99.90
59847;DHT22;45728;48.788;2.302;2023-09-19T15:26:04;21.70;99.90
59847;DHT22;45728;48.788;2.302;2023-09-19T15:28:31;21.70;99.90
59847;DHT22;45728;48.788;2.302;2023-09-19T15:31:00;21.70;99.90
59847;DHT22;45728;48.788;2.302;2023-09-19T15:33:27;21.70;99.90
59847;DHT22;45728;48.788;2.302;2023-09-19T15:36:03;21.70;99.90
59847;DHT22;45728;48.788;2.302;2023-09-19T15:38:31;21.60;99.90
59847;DHT22;45728;48.788;2.302;2023-09-19T15:41:00;21.60;99.90
59847;DHT22;45728;48.788;2.302;2023-09-19T15:43:26;21.70;99.90
59847;DHT22;45728;48.788;2.302;2023-09-19T15:45:52;21.80;99.90
59847;DHT22;45728;48.788;2.302;2023-09-19T15:48:18;21.80;99.90
59847;DHT22;45728;48.788;2.302;2023-09-19T15:50:47;21.80;99.90
59847;DHT22;45728;48.788;2.302;2023-09-19T15:53:13;21.80;99.90
59847;DHT22;45728;48.788;2.302;2023-09-19T15:55:40;21.70;99.90
59847;DHT22;45728;48.788;2.302;2023-09-19T15:58:06;21.70;99.90
59847;DHT22;45728;48.788;2.302;2023-09-19T16:00:33;21.70;99.90
59847;DHT22;45728;48.788;2.302;2023-09-19T16:03:02;21.70;99.90
59847;DHT22;45728;48.788;2.302;2023-09-19T16:05:35;21.70;99.90
59847;DHT22;45728;48.788;2.302;2023-09-19T16:08:04;21.80;99.90
59847;DHT22;45728;48.788;2.302;2023-09-19T16:10:34;21.80;99.90
59847;DHT22;45728;48.788;2.302;2023-09-19T16:13:00;21.70;99.90
59847;DHT22;45728;48.788;2.302;2023-09-19T16:15:26;21.70;99.90
59847;DHT22;45728;48.788;2.302;2023-09-19T16:17:52;21.70;99.90
59847;DHT22;45728;48.788;2.302;2023-09-19T16:20:20;21.60;99.90
59847;DHT22;45728;48.788;2.302;2023-09-19T16:22:49;21.60;99.90
59847;DHT22;45728;48.788;2.302;2023-09-19T16:25:15;21.60;99.90
59847;DHT22;45728;48.788;2.302;2023-09-19T16:27:42;21.60;99.90
59847;DHT22;45728;48.788;2.302;2023-09-19T16:30:08;21.50;99.90
59847;DHT22;45728;48.788;2.302;2023-09-19T16:32:35;21.60;99.90
59847;DHT22;45728;48.788;2.302;2023-09-19T16:35:02;21.50;99.90
59847;DHT22;45728;48.788;2.302;2023-09-19T16:37:28;21.40;99.90
59847;DHT22;45728;48.788;2.302;2023-09-19T16:39:54;21.40;99.90
59847;DHT22;45728;48.788;2.302;2023-09-19T16:42:20;21.30;99.90
59847;DHT22;45728;48.788;2.302;2023-09-19T16:44:47;21.40;99.90
59847;DHT22;45728;48.788;2.302;2023-09-19T16:47:13;21.50;99.90
59847;DHT22;45728;48.788;2.302;2023-09-19T16:49:39;21.40;99.90
59847;DHT22;45728;48.788;2.302;2023-09-19T16:52:05;21.40;99.90